sensor_id;sensor_type;location;lat;lon;timestamp;P1;durP1;ratioP1;P2;durP2;ratioP2
24637;SDS011;12773;50.162;8.548;2024-01-30T00:00:30;43.00;;;19.17;;
24637;SDS011;12773;50.162;8.548;2024-01-30T00:03:18;40.40;;;15.90;;
24637;SDS011;12773;50.162;8.548;2024-01-30T00:06:05;37.75;;;17.55;;
24637;SDS011;12773;50.162;8.548;2024-01-30T00:08:53;40.70;;;17.05;;
24637;SDS011;12773;50.162;8.548;2024-01-30T00:11:41;40.30;;;17.32;;
24637;SDS011;12773;50.162;8.548;2024-01-30T00:14:28;44.30;;;17.12;;
24637;SDS011;12773;50.162;8.548;2024-01-30T00:17:17;45.85;;;17.80;;
24637;SDS011;12773;50.162;8.548;2024-01-30T00:20:06;44.73;;;18.07;;
24637;SDS011;12773;50.162;8.548;2024-01-30T00:22:55;47.40;;;17.77;;
24637;SDS011;12773;50.162;8.548;2024-01-30T00:25:49;39.27;;;18.17;;
24637;SDS011;12773;50.162;8.548;2024-01-30T00:28:32;45.23;;;18.65;;
24637;SDS011;12773;50.162;8.548;2024-01-30T00:31:19;40.75;;;18.62;;
24637;SDS011;12773;50.162;8.548;2024-01-30T00:34:07;42.83;;;17.75;;
24637;SDS011;12773;50.162;8.548;2024-01-30T00:36:54;36.50;;;16.73;;
24637;SDS011;12773;50.162;8.548;2024-01-30T00:39:42;39.98;;;18.42;;
24637;SDS011;12773;50.162;8.548;2024-01-30T00:42:29;49.08;;;18.07;;
24637;SDS011;12773;50.162;8.548;2024-01-30T00:45:17;36.25;;;17.02;;
24637;SDS011;12773;50.162;8.548;2024-01-30T00:48:05;43.80;;;17.40;;
24637;SDS011;12773;50.162;8.548;2024-01-30T00:50:52;46.18;;;19.75;;
24637;SDS011;12773;50.162;8.548;2024-01-30T00:53:40;48.68;;;19.37;;
24637;SDS011;12773;50.162;8.548;2024-01-30T00:56:30;43.85;;;17.40;;
24637;SDS011;12773;50.162;8.548;2024-01-30T00:59:18;36.73;;;16.10;;
24637;SDS011;12773;50.162;8.548;2024-01-30T01:02:05;36.13;;;16.85;;
24637;SDS011;12773;50.162;8.548;2024-01-30T01:04:54;44.67;;;18.57;;
24637;SDS011;12773;50.162;8.548;2024-01-30T01:07:41;41.37;;;17.42;;
24637;SDS011;12773;50.162;8.548;2024-01-30T01:10:29;40.48;;;18.12;;
24637;SDS011;12773;50.162;8.548;2024-01-30T01:13:17;46.00;;;17.05;;
24637;SDS011;12773;50.162;8.548;2024-01-30T01:16:04;46.65;;;18.75;;
24637;SDS011;12773;50.162;8.548;2024-01-30T01:18:55;39.90;;;18.37;;
24637;SDS011;12773;50.162;8.548;2024-01-30T01:21:43;46.95;;;18.82;;
24637;SDS011;12773;50.162;8.548;2024-01-30T01:24:31;41.15;;;18.07;;
24637;SDS011;12773;50.162;8.548;2024-01-30T01:27:18;52.67;;;19.00;;
24637;SDS011;12773;50.162;8.548;2024-01-30T01:30:08;50.98;;;20.97;;
24637;SDS011;12773;50.162;8.548;2024-01-30T01:32:58;58.98;;;21.35;;
24637;SDS011;12773;50.162;8.548;2024-01-30T01:35:48;48.60;;;19.65;;
24637;SDS011;12773;50.162;8.548;2024-01-30T01:38:35;53.20;;;21.90;;
24637;SDS011;12773;50.162;8.548;2024-01-30T01:41:23;49.35;;;21.20;;
24637;SDS011;12773;50.162;8.548;2024-01-30T01:44:11;51.25;;;20.70;;
24637;SDS011;12773;50.162;8.548;2024-01-30T01:46:58;57.70;;;22.73;;
24637;SDS011;12773;50.162;8.548;2024-01-30T01:49:45;52.38;;;21.23;;
24637;SDS011;12773;50.162;8.548;2024-01-30T01:52:34;55.10;;;22.35;;
24637;SDS011;12773;50.162;8.548;2024-01-30T01:55:21;56.35;;;21.48;;
24637;SDS011;12773;50.162;8.548;2024-01-30T01:58:10;59.05;;;21.33;;
24637;SDS011;12773;50.162;8.548;2024-01-30T02:00:59;49.77;;;21.52;;
24637;SDS011;12773;50.162;8.548;2024-01-30T02:03:46;53.33;;;22.98;;
24637;SDS011;12773;50.162;8.548;2024-01-30T02:06:35;57.53;;;22.45;;
24637;SDS011;12773;50.162;8.548;2024-01-30T02:09:24;54.25;;;20.62;;
24637;SDS011;12773;50.162;8.548;2024-01-30T02:12:17;48.05;;;21.17;;
24637;SDS011;12773;50.162;8.548;2024-01-30T02:15:00;49.88;;;19.80;;
24637;SDS011;12773;50.162;8.548;2024-01-30T02:17:47;50.98;;;20.90;;
24637;SDS011;12773;50.162;8.548;2024-01-30T02:20:35;55.50;;;20.92;;
24637;SDS011;12773;50.162;8.548;2024-01-30T02:23:24;50.67;;;21.12;;
24637;SDS011;12773;50.162;8.548;2024-01-30T02:26:12;50.23;;;20.62;;
24637;SDS011;12773;50.162;8.548;2024-01-30T02:29:00;49.13;;;20.80;;
24637;SDS011;12773;50.162;8.548;2024-01-30T02:31:47;49.73;;;19.90;;
24637;SDS011;12773;50.162;8.548;2024-01-30T02:34:34;43.65;;;18.00;;
24637;SDS011;12773;50.162;8.548;2024-01-30T02:37:22;42.27;;;18.50;;
24637;SDS011;12773;50.162;8.548;2024-01-30T02:40:10;40.60;;;18.92;;
24637;SDS011;12773;50.162;8.548;2024-01-30T02:42:58;45.88;;;18.30;;
24637;SDS011;12773;50.162;8.548;2024-01-30T02:45:48;48.00;;;19.35;;
24637;SDS011;12773;50.162;8.548;2024-01-30T02:48:37;44.18;;;19.17;;
24637;SDS011;12773;50.162;8.548;2024-01-30T02:51:25;44.67;;;18.70;;
24637;SDS011;12773;50.162;8.548;2024-01-30T02:54:12;44.13;;;18.95;;
24637;SDS011;12773;50.162;8.548;2024-01-30T02:56:59;41.63;;;18.17;;
24637;SDS011;12773;50.162;8.548;2024-01-30T02:59:47;44.93;;;17.75;;
24637;SDS011;12773;50.162;8.548;2024-01-30T03:02:34;47.33;;;18.67;;
24637;SDS011;12773;50.162;8.548;2024-01-30T03:05:23;45.65;;;18.73;;
24637;SDS011;12773;50.162;8.548;2024-01-30T03:08:10;42.65;;;19.27;;
24637;SDS011;12773;50.162;8.548;2024-01-30T03:10:58;39.53;;;18.67;;
24637;SDS011;12773;50.162;8.548;2024-01-30T03:13:46;41.63;;;17.92;;
24637;SDS011;12773;50.162;8.548;2024-01-30T03:16:33;50.75;;;19.87;;
24637;SDS011;12773;50.162;8.548;2024-01-30T03:19:21;56.50;;;20.75;;
24637;SDS011;12773;50.162;8.548;2024-01-30T03:22:08;48.68;;;19.98;;
24637;SDS011;12773;50.162;8.548;2024-01-30T03:24:56;48.20;;;18.55;;
24637;SDS011;12773;50.162;8.548;2024-01-30T03:27:43;53.05;;;20.43;;
24637;SDS011;12773;50.162;8.548;2024-01-30T03:30:31;71.67;;;22.52;;
24637;SDS011;12773;50.162;8.548;2024-01-30T03:33:19;69.35;;;21.97;;
24637;SDS011;12773;50.162;8.548;2024-01-30T03:36:07;64.58;;;22.35;;
24637;SDS011;12773;50.162;8.548;2024-01-30T03:38:55;67.53;;;21.25;;
24637;SDS011;12773;50.162;8.548;2024-01-30T03:41:42;59.20;;;21.73;;
24637;SDS011;12773;50.162;8.548;2024-01-30T03:44:30;60.17;;;20.60;;
24637;SDS011;12773;50.162;8.548;2024-01-30T03:47:18;57.67;;;19.82;;
24637;SDS011;12773;50.162;8.548;2024-01-30T03:50:05;63.85;;;20.10;;
24637;SDS011;12773;50.162;8.548;2024-01-30T03:52:54;54.70;;;21.40;;
24637;SDS011;12773;50.162;8.548;2024-01-30T03:55:41;58.33;;;21.82;;
24637;SDS011;12773;50.162;8.548;2024-01-30T03:58:29;56.88;;;21.50;;
24637;SDS011;12773;50.162;8.548;2024-01-30T04:01:16;41.45;;;18.40;;
24637;SDS011;12773;50.162;8.548;2024-01-30T04:04:04;52.83;;;19.65;;
24637;SDS011;12773;50.162;8.548;2024-01-30T04:06:51;42.43;;;18.82;;
24637;SDS011;12773;50.162;8.548;2024-01-30T04:09:39;43.13;;;19.50;;
24637;SDS011;12773;50.162;8.548;2024-01-30T04:12:26;48.65;;;20.55;;
24637;SDS011;12773;50.162;8.548;2024-01-30T04:15:13;50.05;;;20.65;;
24637;SDS011;12773;50.162;8.548;2024-01-30T04:18:02;40.12;;;18.48;;
24637;SDS011;12773;50.162;8.548;2024-01-30T04:20:49;55.92;;;20.32;;
24637;SDS011;12773;50.162;8.548;2024-01-30T04:23:37;50.75;;;21.82;;
24637;SDS011;12773;50.162;8.548;2024-01-30T04:26:25;46.88;;;19.52;;
24637;SDS011;12773;50.162;8.548;2024-01-30T04:29:13;45.75;;;18.82;;
24637;SDS011;12773;50.162;8.548;2024-01-30T04:32:00;44.88;;;19.30;;
24637;SDS011;12773;50.162;8.548;2024-01-30T04:34:48;44.85;;;20.15;;
24637;SDS011;12773;50.162;8.548;2024-01-30T04:37:35;52.48;;;20.48;;
24637;SDS011;12773;50.162;8.548;2024-01-30T04:40:23;51.05;;;19.92;;
24637;SDS011;12773;50.162;8.548;2024-01-30T04:43:11;47.88;;;18.52;;
24637;SDS011;12773;50.162;8.548;2024-01-30T04:45:58;45.50;;;19.07;;
24637;SDS011;12773;50.162;8.548;2024-01-30T04:48:49;46.20;;;19.95;;
24637;SDS011;12773;50.162;8.548;2024-01-30T04:51:36;43.52;;;19.80;;
24637;SDS011;12773;50.162;8.548;2024-01-30T04:54:23;50.80;;;20.95;;
24637;SDS011;12773;50.162;8.548;2024-01-30T04:57:12;38.10;;;17.25;;
24637;SDS011;12773;50.162;8.548;2024-01-30T05:00:00;45.92;;;19.75;;
24637;SDS011;12773;50.162;8.548;2024-01-30T05:02:47;49.93;;;20.02;;
24637;SDS011;12773;50.162;8.548;2024-01-30T05:05:37;46.58;;;19.87;;
24637;SDS011;12773;50.162;8.548;2024-01-30T05:08:25;45.12;;;18.70;;
24637;SDS011;12773;50.162;8.548;2024-01-30T05:11:12;48.65;;;19.50;;
24637;SDS011;12773;50.162;8.548;2024-01-30T05:13:59;49.23;;;20.48;;
24637;SDS011;12773;50.162;8.548;2024-01-30T05:16:49;43.73;;;19.30;;
24637;SDS011;12773;50.162;8.548;2024-01-30T05:19:37;47.98;;;20.10;;
24637;SDS011;12773;50.162;8.548;2024-01-30T05:22:25;52.15;;;20.85;;
24637;SDS011;12773;50.162;8.548;2024-01-30T05:25:21;44.55;;;19.02;;
24637;SDS011;12773;50.162;8.548;2024-01-30T05:28:09;46.35;;;19.25;;
24637;SDS011;12773;50.162;8.548;2024-01-30T05:30:56;48.00;;;19.55;;
24637;SDS011;12773;50.162;8.548;2024-01-30T05:33:44;48.55;;;19.40;;
24637;SDS011;12773;50.162;8.548;2024-01-30T05:36:31;47.13;;;19.95;;
24637;SDS011;12773;50.162;8.548;2024-01-30T05:39:19;54.60;;;20.57;;
24637;SDS011;12773;50.162;8.548;2024-01-30T05:42:06;48.40;;;19.37;;
24637;SDS011;12773;50.162;8.548;2024-01-30T05:44:53;49.73;;;20.05;;
24637;SDS011;12773;50.162;8.548;2024-01-30T05:47:41;54.42;;;21.45;;
24637;SDS011;12773;50.162;8.548;2024-01-30T05:50:28;49.75;;;20.55;;
24637;SDS011;12773;50.162;8.548;2024-01-30T05:53:16;51.83;;;21.15;;
24637;SDS011;12773;50.162;8.548;2024-01-30T05:56:04;52.30;;;20.68;;
24637;SDS011;12773;50.162;8.548;2024-01-30T05:58:54;49.30;;;21.25;;
24637;SDS011;12773;50.162;8.548;2024-01-30T06:01:47;52.33;;;21.35;;
24637;SDS011;12773;50.162;8.548;2024-01-30T06:04:47;52.78;;;21.95;;
24637;SDS011;12773;50.162;8.548;2024-01-30T06:07:35;52.40;;;20.40;;
24637;SDS011;12773;50.162;8.548;2024-01-30T06:10:22;52.35;;;19.50;;
24637;SDS011;12773;50.162;8.548;2024-01-30T06:13:11;62.83;;;21.95;;
24637;SDS011;12773;50.162;8.548;2024-01-30T06:15:59;49.05;;;21.17;;
24637;SDS011;12773;50.162;8.548;2024-01-30T06:18:46;51.75;;;20.60;;
24637;SDS011;12773;50.162;8.548;2024-01-30T06:21:34;53.10;;;21.68;;
24637;SDS011;12773;50.162;8.548;2024-01-30T06:24:22;58.58;;;21.85;;
24637;SDS011;12773;50.162;8.548;2024-01-30T06:27:11;57.98;;;22.40;;
24637;SDS011;12773;50.162;8.548;2024-01-30T06:29:59;56.05;;;22.10;;
24637;SDS011;12773;50.162;8.548;2024-01-30T06:32:47;50.40;;;21.33;;
24637;SDS011;12773;50.162;8.548;2024-01-30T06:35:35;56.40;;;22.52;;
24637;SDS011;12773;50.162;8.548;2024-01-30T06:38:25;59.42;;;21.77;;
24637;SDS011;12773;50.162;8.548;2024-01-30T06:41:13;57.53;;;22.00;;
24637;SDS011;12773;50.162;8.548;2024-01-30T06:44:05;56.60;;;23.18;;
24637;SDS011;12773;50.162;8.548;2024-01-30T06:46:54;52.48;;;22.40;;
24637;SDS011;12773;50.162;8.548;2024-01-30T06:49:41;54.20;;;21.52;;
24637;SDS011;12773;50.162;8.548;2024-01-30T06:52:32;51.77;;;22.82;;
24637;SDS011;12773;50.162;8.548;2024-01-30T06:55:20;57.53;;;23.77;;
24637;SDS011;12773;50.162;8.548;2024-01-30T06:58:07;59.25;;;21.12;;
24637;SDS011;12773;50.162;8.548;2024-01-30T07:00:55;52.95;;;22.35;;
24637;SDS011;12773;50.162;8.548;2024-01-30T07:03:43;59.58;;;22.80;;
24637;SDS011;12773;50.162;8.548;2024-01-30T07:06:30;55.75;;;22.45;;
24637;SDS011;12773;50.162;8.548;2024-01-30T07:09:17;56.08;;;22.13;;
24637;SDS011;12773;50.162;8.548;2024-01-30T07:12:05;51.88;;;20.88;;
24637;SDS011;12773;50.162;8.548;2024-01-30T07:14:52;55.45;;;22.75;;
24637;SDS011;12773;50.162;8.548;2024-01-30T07:17:41;52.23;;;21.02;;
24637;SDS011;12773;50.162;8.548;2024-01-30T07:20:29;57.33;;;21.17;;
24637;SDS011;12773;50.162;8.548;2024-01-30T07:23:18;52.03;;;20.48;;
24637;SDS011;12773;50.162;8.548;2024-01-30T07:26:05;45.12;;;18.75;;
24637;SDS011;12773;50.162;8.548;2024-01-30T07:28:54;48.35;;;20.80;;
24637;SDS011;12773;50.162;8.548;2024-01-30T07:31:41;58.52;;;23.25;;
24637;SDS011;12773;50.162;8.548;2024-01-30T07:34:29;50.30;;;22.40;;
24637;SDS011;12773;50.162;8.548;2024-01-30T07:37:18;52.08;;;21.07;;
24637;SDS011;12773;50.162;8.548;2024-01-30T07:40:06;48.40;;;20.32;;
24637;SDS011;12773;50.162;8.548;2024-01-30T07:42:54;45.30;;;19.80;;
24637;SDS011;12773;50.162;8.548;2024-01-30T07:45:42;57.00;;;19.98;;
24637;SDS011;12773;50.162;8.548;2024-01-30T07:48:29;44.93;;;19.52;;
24637;SDS011;12773;50.162;8.548;2024-01-30T07:51:17;43.30;;;19.73;;
24637;SDS011;12773;50.162;8.548;2024-01-30T07:54:05;50.35;;;22.32;;
24637;SDS011;12773;50.162;8.548;2024-01-30T07:56:53;57.83;;;26.85;;
24637;SDS011;12773;50.162;8.548;2024-01-30T07:59:45;59.77;;;26.77;;
24637;SDS011;12773;50.162;8.548;2024-01-30T08:02:32;65.42;;;26.35;;
24637;SDS011;12773;50.162;8.548;2024-01-30T08:05:19;59.98;;;27.93;;
24637;SDS011;12773;50.162;8.548;2024-01-30T08:08:09;54.30;;;26.40;;
24637;SDS011;12773;50.162;8.548;2024-01-30T08:10:57;60.43;;;26.48;;
24637;SDS011;12773;50.162;8.548;2024-01-30T08:13:45;56.98;;;26.75;;
24637;SDS011;12773;50.162;8.548;2024-01-30T08:16:32;60.78;;;25.45;;
24637;SDS011;12773;50.162;8.548;2024-01-30T08:19:20;57.48;;;25.37;;
24637;SDS011;12773;50.162;8.548;2024-01-30T08:22:08;54.38;;;26.20;;
24637;SDS011;12773;50.162;8.548;2024-01-30T08:24:55;57.98;;;25.77;;
24637;SDS011;12773;50.162;8.548;2024-01-30T08:27:43;50.17;;;23.25;;
24637;SDS011;12773;50.162;8.548;2024-01-30T08:30:31;51.20;;;24.25;;
24637;SDS011;12773;50.162;8.548;2024-01-30T08:33:19;54.33;;;24.70;;
24637;SDS011;12773;50.162;8.548;2024-01-30T08:36:07;56.60;;;26.02;;
24637;SDS011;12773;50.162;8.548;2024-01-30T08:38:54;58.75;;;25.10;;
24637;SDS011;12773;50.162;8.548;2024-01-30T08:41:43;48.10;;;24.57;;
24637;SDS011;12773;50.162;8.548;2024-01-30T08:44:31;50.50;;;23.10;;
24637;SDS011;12773;50.162;8.548;2024-01-30T08:47:18;50.60;;;24.30;;
24637;SDS011;12773;50.162;8.548;2024-01-30T08:50:06;48.75;;;23.90;;
24637;SDS011;12773;50.162;8.548;2024-01-30T08:52:54;52.48;;;24.43;;
24637;SDS011;12773;50.162;8.548;2024-01-30T08:55:42;47.67;;;22.55;;
24637;SDS011;12773;50.162;8.548;2024-01-30T08:58:30;51.88;;;25.20;;
24637;SDS011;12773;50.162;8.548;2024-01-30T09:01:17;66.95;;;31.57;;
24637;SDS011;12773;50.162;8.548;2024-01-30T09:04:05;48.75;;;23.67;;
24637;SDS011;12773;50.162;8.548;2024-01-30T09:06:56;48.30;;;22.77;;
24637;SDS011;12773;50.162;8.548;2024-01-30T09:09:43;44.85;;;22.52;;
24637;SDS011;12773;50.162;8.548;2024-01-30T09:12:31;39.92;;;20.88;;
24637;SDS011;12773;50.162;8.548;2024-01-30T09:15:18;40.67;;;20.68;;
24637;SDS011;12773;50.162;8.548;2024-01-30T09:18:07;46.30;;;21.90;;
24637;SDS011;12773;50.162;8.548;2024-01-30T09:20:56;46.55;;;21.75;;
24637;SDS011;12773;50.162;8.548;2024-01-30T09:23:44;43.42;;;21.60;;
24637;SDS011;12773;50.162;8.548;2024-01-30T09:26:31;42.45;;;22.17;;
24637;SDS011;12773;50.162;8.548;2024-01-30T09:29:19;38.42;;;20.72;;
24637;SDS011;12773;50.162;8.548;2024-01-30T09:32:06;41.73;;;21.15;;
24637;SDS011;12773;50.162;8.548;2024-01-30T09:34:55;37.60;;;20.08;;
24637;SDS011;12773;50.162;8.548;2024-01-30T09:37:42;40.60;;;19.82;;
24637;SDS011;12773;50.162;8.548;2024-01-30T09:40:30;40.70;;;20.55;;
24637;SDS011;12773;50.162;8.548;2024-01-30T09:43:18;36.80;;;21.37;;
24637;SDS011;12773;50.162;8.548;2024-01-30T09:46:11;52.10;;;26.37;;
24637;SDS011;12773;50.162;8.548;2024-01-30T09:49:01;40.45;;;20.72;;
24637;SDS011;12773;50.162;8.548;2024-01-30T09:51:49;43.55;;;20.72;;
24637;SDS011;12773;50.162;8.548;2024-01-30T09:54:38;34.95;;;19.23;;
24637;SDS011;12773;50.162;8.548;2024-01-30T09:57:26;40.35;;;19.90;;
24637;SDS011;12773;50.162;8.548;2024-01-30T10:00:14;42.05;;;20.88;;
24637;SDS011;12773;50.162;8.548;2024-01-30T10:03:02;37.90;;;18.95;;
24637;SDS011;12773;50.162;8.548;2024-01-30T10:05:51;42.95;;;19.77;;
24637;SDS011;12773;50.162;8.548;2024-01-30T10:08:41;40.73;;;20.00;;
24637;SDS011;12773;50.162;8.548;2024-01-30T10:11:29;35.90;;;18.35;;
24637;SDS011;12773;50.162;8.548;2024-01-30T10:14:17;35.08;;;19.27;;
24637;SDS011;12773;50.162;8.548;2024-01-30T10:17:05;40.95;;;19.37;;
24637;SDS011;12773;50.162;8.548;2024-01-30T10:19:55;35.20;;;18.55;;
24637;SDS011;12773;50.162;8.548;2024-01-30T10:22:44;39.42;;;20.27;;
24637;SDS011;12773;50.162;8.548;2024-01-30T10:25:33;39.33;;;19.52;;
24637;SDS011;12773;50.162;8.548;2024-01-30T10:28:21;37.23;;;19.77;;
24637;SDS011;12773;50.162;8.548;2024-01-30T10:31:08;45.33;;;21.05;;
24637;SDS011;12773;50.162;8.548;2024-01-30T10:33:56;43.73;;;20.72;;
24637;SDS011;12773;50.162;8.548;2024-01-30T10:36:46;41.50;;;19.95;;
24637;SDS011;12773;50.162;8.548;2024-01-30T10:39:37;39.58;;;19.80;;
24637;SDS011;12773;50.162;8.548;2024-01-30T10:42:26;35.68;;;20.10;;
24637;SDS011;12773;50.162;8.548;2024-01-30T10:45:15;36.60;;;20.10;;
24637;SDS011;12773;50.162;8.548;2024-01-30T10:48:02;36.60;;;19.45;;
24637;SDS011;12773;50.162;8.548;2024-01-30T10:50:51;51.83;;;25.62;;
24637;SDS011;12773;50.162;8.548;2024-01-30T10:53:43;44.03;;;23.15;;
24637;SDS011;12773;50.162;8.548;2024-01-30T10:56:34;40.28;;;19.80;;
24637;SDS011;12773;50.162;8.548;2024-01-30T10:59:23;44.45;;;21.52;;
24637;SDS011;12773;50.162;8.548;2024-01-30T11:02:13;38.15;;;20.92;;
24637;SDS011;12773;50.162;8.548;2024-01-30T11:05:01;42.03;;;22.80;;
24637;SDS011;12773;50.162;8.548;2024-01-30T11:07:50;40.50;;;22.27;;
24637;SDS011;12773;50.162;8.548;2024-01-30T11:10:46;39.53;;;20.08;;
24637;SDS011;12773;50.162;8.548;2024-01-30T11:13:33;36.05;;;20.55;;
24637;SDS011;12773;50.162;8.548;2024-01-30T11:16:21;36.35;;;19.35;;
24637;SDS011;12773;50.162;8.548;2024-01-30T11:19:12;38.67;;;19.57;;
24637;SDS011;12773;50.162;8.548;2024-01-30T11:22:00;34.80;;;19.60;;
24637;SDS011;12773;50.162;8.548;2024-01-30T11:24:47;39.20;;;18.50;;
24637;SDS011;12773;50.162;8.548;2024-01-30T11:27:35;46.37;;;20.50;;
24637;SDS011;12773;50.162;8.548;2024-01-30T11:33:27;36.75;;;20.17;;
24637;SDS011;12773;50.162;8.548;2024-01-30T11:36:17;36.17;;;18.52;;
24637;SDS011;12773;50.162;8.548;2024-01-30T11:39:07;36.75;;;19.90;;
24637;SDS011;12773;50.162;8.548;2024-01-30T11:41:55;41.88;;;19.62;;
24637;SDS011;12773;50.162;8.548;2024-01-30T11:44:47;36.73;;;19.80;;
24637;SDS011;12773;50.162;8.548;2024-01-30T11:47:35;32.73;;;19.45;;
24637;SDS011;12773;50.162;8.548;2024-01-30T11:50:25;35.25;;;19.15;;
24637;SDS011;12773;50.162;8.548;2024-01-30T11:53:13;35.30;;;18.37;;
24637;SDS011;12773;50.162;8.548;2024-01-30T11:56:02;38.88;;;19.40;;
24637;SDS011;12773;50.162;8.548;2024-01-30T11:58:50;35.17;;;19.10;;
24637;SDS011;12773;50.162;8.548;2024-01-30T12:01:38;37.00;;;19.52;;
24637;SDS011;12773;50.162;8.548;2024-01-30T12:04:31;36.45;;;17.60;;
24637;SDS011;12773;50.162;8.548;2024-01-30T12:07:15;32.48;;;18.45;;
24637;SDS011;12773;50.162;8.548;2024-01-30T12:10:03;35.28;;;18.27;;
24637;SDS011;12773;50.162;8.548;2024-01-30T12:12:51;40.30;;;18.65;;
24637;SDS011;12773;50.162;8.548;2024-01-30T12:15:40;38.35;;;19.20;;
24637;SDS011;12773;50.162;8.548;2024-01-30T12:18:28;35.23;;;18.73;;
24637;SDS011;12773;50.162;8.548;2024-01-30T12:21:16;40.88;;;19.32;;
24637;SDS011;12773;50.162;8.548;2024-01-30T12:24:04;38.23;;;18.98;;
24637;SDS011;12773;50.162;8.548;2024-01-30T12:26:56;36.98;;;18.75;;
24637;SDS011;12773;50.162;8.548;2024-01-30T12:29:46;33.63;;;18.48;;
24637;SDS011;12773;50.162;8.548;2024-01-30T12:32:40;37.17;;;19.10;;
24637;SDS011;12773;50.162;8.548;2024-01-30T12:35:29;36.42;;;18.98;;
24637;SDS011;12773;50.162;8.548;2024-01-30T12:38:19;36.13;;;18.23;;
24637;SDS011;12773;50.162;8.548;2024-01-30T12:41:06;37.50;;;18.35;;
24637;SDS011;12773;50.162;8.548;2024-01-30T12:43:55;34.80;;;19.20;;
24637;SDS011;12773;50.162;8.548;2024-01-30T12:46:44;36.08;;;18.35;;
24637;SDS011;12773;50.162;8.548;2024-01-30T12:49:33;30.92;;;17.45;;
24637;SDS011;12773;50.162;8.548;2024-01-30T12:52:21;34.30;;;19.07;;
24637;SDS011;12773;50.162;8.548;2024-01-30T12:55:09;34.38;;;18.37;;
24637;SDS011;12773;50.162;8.548;2024-01-30T12:57:56;33.33;;;18.60;;
24637;SDS011;12773;50.162;8.548;2024-01-30T13:00:44;39.95;;;19.48;;
24637;SDS011;12773;50.162;8.548;2024-01-30T13:03:32;33.85;;;18.57;;
24637;SDS011;12773;50.162;8.548;2024-01-30T13:06:22;32.15;;;17.70;;
24637;SDS011;12773;50.162;8.548;2024-01-30T13:09:09;34.98;;;18.80;;
24637;SDS011;12773;50.162;8.548;2024-01-30T13:11:58;35.63;;;18.10;;
24637;SDS011;12773;50.162;8.548;2024-01-30T13:14:49;31.45;;;17.12;;
24637;SDS011;12773;50.162;8.548;2024-01-30T13:17:36;35.13;;;17.85;;
24637;SDS011;12773;50.162;8.548;2024-01-30T13:20:23;36.53;;;16.52;;
24637;SDS011;12773;50.162;8.548;2024-01-30T13:23:11;33.20;;;16.73;;
24637;SDS011;12773;50.162;8.548;2024-01-30T13:25:59;30.00;;;16.12;;
24637;SDS011;12773;50.162;8.548;2024-01-30T13:28:46;33.33;;;16.97;;
24637;SDS011;12773;50.162;8.548;2024-01-30T13:31:33;34.15;;;16.75;;
24637;SDS011;12773;50.162;8.548;2024-01-30T13:34:21;31.77;;;17.15;;
24637;SDS011;12773;50.162;8.548;2024-01-30T13:37:09;29.35;;;16.27;;
24637;SDS011;12773;50.162;8.548;2024-01-30T13:39:56;34.10;;;17.05;;
24637;SDS011;12773;50.162;8.548;2024-01-30T13:42:47;35.63;;;17.25;;
24637;SDS011;12773;50.162;8.548;2024-01-30T13:45:34;31.68;;;16.70;;
24637;SDS011;12773;50.162;8.548;2024-01-30T13:48:22;28.05;;;16.02;;
24637;SDS011;12773;50.162;8.548;2024-01-30T13:51:09;31.55;;;17.37;;
24637;SDS011;12773;50.162;8.548;2024-01-30T13:53:59;35.17;;;17.00;;
24637;SDS011;12773;50.162;8.548;2024-01-30T13:56:46;34.05;;;17.65;;
24637;SDS011;12773;50.162;8.548;2024-01-30T13:59:34;34.83;;;17.27;;
24637;SDS011;12773;50.162;8.548;2024-01-30T14:02:21;35.05;;;17.55;;
24637;SDS011;12773;50.162;8.548;2024-01-30T14:05:09;36.53;;;17.82;;
24637;SDS011;12773;50.162;8.548;2024-01-30T14:07:57;34.73;;;17.27;;
24637;SDS011;12773;50.162;8.548;2024-01-30T14:10:46;28.35;;;17.20;;
24637;SDS011;12773;50.162;8.548;2024-01-30T14:13:33;35.13;;;17.15;;
24637;SDS011;12773;50.162;8.548;2024-01-30T14:16:21;33.90;;;17.73;;
24637;SDS011;12773;50.162;8.548;2024-01-30T14:19:10;35.25;;;17.65;;
24637;SDS011;12773;50.162;8.548;2024-01-30T14:21:57;30.05;;;17.75;;
24637;SDS011;12773;50.162;8.548;2024-01-30T14:24:45;29.20;;;17.87;;
24637;SDS011;12773;50.162;8.548;2024-01-30T14:27:34;35.73;;;18.30;;
24637;SDS011;12773;50.162;8.548;2024-01-30T14:30:22;34.55;;;18.12;;
24637;SDS011;12773;50.162;8.548;2024-01-30T14:33:11;36.35;;;19.30;;
24637;SDS011;12773;50.162;8.548;2024-01-30T14:35:58;34.83;;;18.35;;
24637;SDS011;12773;50.162;8.548;2024-01-30T14:38:46;43.48;;;18.80;;
24637;SDS011;12773;50.162;8.548;2024-01-30T14:41:33;35.58;;;19.05;;
24637;SDS011;12773;50.162;8.548;2024-01-30T14:44:21;37.03;;;18.82;;
24637;SDS011;12773;50.162;8.548;2024-01-30T14:47:09;35.65;;;19.12;;
24637;SDS011;12773;50.162;8.548;2024-01-30T14:49:58;37.10;;;19.52;;
24637;SDS011;12773;50.162;8.548;2024-01-30T14:52:46;37.63;;;19.20;;
24637;SDS011;12773;50.162;8.548;2024-01-30T14:55:33;37.30;;;19.57;;
24637;SDS011;12773;50.162;8.548;2024-01-30T14:58:21;37.63;;;18.57;;
24637;SDS011;12773;50.162;8.548;2024-01-30T15:01:08;44.18;;;21.57;;
24637;SDS011;12773;50.162;8.548;2024-01-30T15:03:56;36.33;;;18.82;;
24637;SDS011;12773;50.162;8.548;2024-01-30T15:06:44;40.20;;;19.90;;
24637;SDS011;12773;50.162;8.548;2024-01-30T15:09:33;40.48;;;19.62;;
24637;SDS011;12773;50.162;8.548;2024-01-30T15:12:21;37.70;;;18.92;;
24637;SDS011;12773;50.162;8.548;2024-01-30T15:15:08;37.45;;;18.92;;
24637;SDS011;12773;50.162;8.548;2024-01-30T15:17:56;39.03;;;19.12;;
24637;SDS011;12773;50.162;8.548;2024-01-30T15:20:44;36.70;;;18.80;;
24637;SDS011;12773;50.162;8.548;2024-01-30T15:23:31;39.95;;;18.95;;
24637;SDS011;12773;50.162;8.548;2024-01-30T15:26:19;31.80;;;17.70;;
24637;SDS011;12773;50.162;8.548;2024-01-30T15:29:07;37.40;;;17.10;;
24637;SDS011;12773;50.162;8.548;2024-01-30T15:31:54;31.50;;;16.67;;
24637;SDS011;12773;50.162;8.548;2024-01-30T15:34:42;35.13;;;17.95;;
24637;SDS011;12773;50.162;8.548;2024-01-30T15:37:30;31.30;;;16.42;;
24637;SDS011;12773;50.162;8.548;2024-01-30T15:40:18;38.23;;;16.67;;
24637;SDS011;12773;50.162;8.548;2024-01-30T15:43:06;31.42;;;17.40;;
24637;SDS011;12773;50.162;8.548;2024-01-30T15:45:54;29.10;;;15.25;;
24637;SDS011;12773;50.162;8.548;2024-01-30T15:48:41;26.65;;;14.90;;
24637;SDS011;12773;50.162;8.548;2024-01-30T15:51:28;30.23;;;15.00;;
24637;SDS011;12773;50.162;8.548;2024-01-30T15:54:17;26.70;;;14.55;;
24637;SDS011;12773;50.162;8.548;2024-01-30T15:57:06;28.02;;;14.83;;
24637;SDS011;12773;50.162;8.548;2024-01-30T15:59:53;31.10;;;13.72;;
24637;SDS011;12773;50.162;8.548;2024-01-30T16:02:44;27.93;;;13.85;;
24637;SDS011;12773;50.162;8.548;2024-01-30T16:05:34;31.48;;;14.58;;
24637;SDS011;12773;50.162;8.548;2024-01-30T16:08:22;28.45;;;15.00;;
24637;SDS011;12773;50.162;8.548;2024-01-30T16:11:11;28.10;;;14.43;;
24637;SDS011;12773;50.162;8.548;2024-01-30T16:13:58;25.70;;;14.30;;
24637;SDS011;12773;50.162;8.548;2024-01-30T16:16:46;26.80;;;14.58;;
24637;SDS011;12773;50.162;8.548;2024-01-30T16:19:33;30.75;;;14.70;;
24637;SDS011;12773;50.162;8.548;2024-01-30T16:22:21;25.85;;;13.85;;
24637;SDS011;12773;50.162;8.548;2024-01-30T16:25:09;26.05;;;13.45;;